Alkabo, North Dakota
Current Conditions -  °F | °C
As of 1:57 AM on Sunday 23 Nov 2014 (Local Time) from KISN Reporting Station
Overcast Overcast  
Wind Chill: 28°   Ceiling: 3000
Heat Index: 38°   Visibility: 10mi
Dew Point: 31°   Wind: 20mph
Humidity: 76%   Direction: 260°W
Pressure: 29.34"   Gusts: 26mph
Location:  48.5901°N, 103.922°W
Report Text: KISN 230757Z AUTO 26017G23KT 10SM FEW024 BKN030 OVC037 03/M01 A2934 RMK AO2 T00331006
Loading
Personal Weather Stations






























Interactive Weather Map New forecast layout! Learn more

10-Day Weather Forecast

Advertisements
Track Severe Weather on mobile